Williamsburg, Iowa
Current Conditions -  °F | °C
As of 10:52 PM on Friday 19 Dec 2014 (Local Time) from KCID Reporting Station
Overcast Overcast  
Wind Chill: -5°   Ceiling: 2400
Heat Index: -2°   Visibility: 8mi
Dew Point: -5°   Wind: 6mph
Humidity: 78%   Direction: 140°SE
Pressure: 30.23"   Gusts: NA
Location:  41.66°N, 92.01°W
Report Text: KCID 200452Z 14005KT 8SM OVC024 M02/M05 A3023 RMK AO2 SLP247 T10171050 $
Loading
Personal Weather Stations






























Interactive Weather Map New forecast layout! Learn more

10-Day Weather Forecast

Advertisements
Track Severe Weather on mobile